Buoy 44845

sailwx.info

Track history (hours):
 
Tides and Currents Weather Stations Pressure Air Temp Water Temp Dewpoint Dewpoint Depression Visibility Wind Speed Wind Dir Waves Ship Positions

Drifting buoy 44845

Last reported at 2015-Feb-01 18:01 UTC. Time now 2015-Feb-01 19:41 UTC.
Position N 69°41' W 007°41'.

Water temperature 3.8 ° C

Date/timePositionNaut miles runAvg speedWind from/ knotsBaromVisibWave heightAir tempDewpointWater temp
2015-Feb-01 18:01N 69°41' W 007°41'2 0.9 3.8
2015-Feb-01 16:01N 69°41' W 007°46'1 0.5 3.6
2015-Feb-01 15:01N 69°41' W 007°48'0 0.5 3.5
2015-Feb-01 14:01N 69°41' W 007°49'0 0.5 3.4
2015-Feb-01 13:01N 69°41' W 007°50'0 0.3 3.0
2015-Feb-01 12:01N 69°42' W 007°51'1 0.5 2.3
2015-Feb-01 10:01N 69°43' W 007°51'1 0.7 1.9
2015-Feb-01 09:01N 69°43' W 007°51'1 0.9 2.2
2015-Feb-01 08:01N 69°44' W 007°52'1 0.9 1.9
2015-Feb-01 07:01N 69°45' W 007°53'1 0.7 2.0
2015-Feb-01 06:01N 69°45' W 007°55'1 0.9 1.8
2015-Feb-01 05:01N 69°46' W 007°57'1 0.6 1.8
2015-Feb-01 04:01N 69°46' W 007°59'0 0.4 1.8
2015-Feb-01 03:01N 69°46' W 007°60'0 0.3 1.8
2015-Feb-01 02:01N 69°46' W 008°01'0 0.1 1.8
2015-Feb-01 01:01N 69°46' W 008°01'0 0.1 1.7
2015-Feb-01 00:01N 69°46' W 008°01'0 0.2 1.8
2015-Jan-31 23:01N 69°46' W 008°00'0 0.4 1.7
2015-Jan-31 22:01N 69°47' W 007°60'1 0.5 1.7
2015-Jan-31 21:01N 69°47' W 007°60'1 0.5 1.8
2015-Jan-31 20:01N 69°48' W 007°60'1 0.5 1.8
2015-Jan-31 19:01N 69°48' W 008°00'1 0.6 1.8
2015-Jan-31 18:01N 69°49' W 008°01'1 0.6 1.8
2015-Jan-31 17:01N 69°49' W 008°02'0 0.5 1.8
2015-Jan-31 16:01N 69°50' W 008°03'0 0.4 1.8
2015-Jan-31 15:01N 69°50' W 008°04'0 0.3 1.9
2015-Jan-31 14:01N 69°50' W 008°04'0 0.1 1.9
2015-Jan-31 13:01N 69°50' W 008°04'0 0.1 1.9
2015-Jan-31 12:01N 69°50' W 008°04'0 0.3 1.9
2015-Jan-31 11:01N 69°51' W 008°04'0 0.4 1.9
2015-Jan-31 10:01N 69°51' W 008°03'1 0.5 1.8
2015-Jan-31 09:01N 69°51' W 008°02'1 0.7 1.8
2015-Jan-31 08:01N 69°52' W 008°02'1 0.8 1.8
2015-Jan-31 07:01N 69°53' W 008°01'1 0.8 1.7
2015-Jan-31 06:01N 69°53' W 008°01'1 0.7 1.7
2015-Jan-31 05:01N 69°54' W 008°02'0 0.5 1.7
2015-Jan-31 04:01N 69°55' W 008°02'0 0.3 1.7
2015-Jan-31 03:01N 69°55' W 008°03'0 0.3 1.7
2015-Jan-31 02:01N 69°55' W 008°03'0 0.3 1.7
2015-Jan-31 01:01N 69°55' W 008°03'0 0.2 1.7
2015-Jan-31 00:01N 69°55' W 008°04'0 0.1 1.6
2015-Jan-30 23:01N 69°55' W 008°04'0 0.1 1.6
2015-Jan-30 22:01N 69°56' W 008°04'0 0.2 1.7
2015-Jan-30 21:01N 69°56' W 008°04'0 0.3 1.7
2015-Jan-30 20:01N 69°56' W 008°03'0 0.4 1.7
2015-Jan-30 19:01N 69°56' W 008°03'1 0.6 1.6
2015-Jan-30 18:01N 69°57' W 008°03'1 0.7 1.6
2015-Jan-30 17:01N 69°58' W 008°04'1 1.4 1.6
2015-Jan-30 16:01N 69°59' W 008°05'0 0.0 1.6
2015-Jan-30 15:01N 69°59' W 008°05'1 0.6 1.6
2015-Jan-30 14:01N 69°60' W 008°05'0 0.4 1.7
2015-Jan-30 13:01N 70°00' W 008°06'0 0.2 1.7
2015-Jan-30 12:01N 70°00' W 008°06'0 0.2 1.7
2015-Jan-30 11:01N 70°00' W 008°05'0 0.3 1.6
2015-Jan-30 10:01N 70°01' W 008°05'0 0.5 1.6
2015-Jan-30 09:01N 70°01' W 008°03'1 0.5 1.6
2015-Jan-30 08:01N 70°01' W 008°02'1 0.6 1.6
2015-Jan-30 07:01N 70°02' W 008°01'1 0.6 1.7
2015-Jan-30 06:01N 70°02' W 007°60'1 0.6 1.9
2015-Jan-30 05:01N 70°02' W 007°58'1 0.7 2.1
2015-Jan-30 04:01N 70°03' W 007°57'1 0.6 2.1
2015-Jan-30 03:01N 70°03' W 007°56'1 0.7 2.0
2015-Jan-30 02:01N 70°04' W 007°55'1 0.7 2.0
2015-Jan-30 01:01N 70°05' W 007°54'0 0.5 2.0
2015-Jan-30 00:01N 70°05' W 007°54'0 0.5 2.0
2015-Jan-29 23:01N 70°05' W 007°53'0 0.5 2.0
2015-Jan-29 22:01N 70°06' W 007°52'0 0.4 2.1
2015-Jan-29 21:01N 70°06' W 007°51'1 0.6 2.1
2015-Jan-29 20:01N 70°07' W 007°50'1 0.6 2.1
2015-Jan-29 19:01N 70°07' W 007°49'1 0.8 2.0
2015-Jan-29 18:01N 70°07' W 007°47'1 0.8 2.0
2015-Jan-29 17:01N 70°08' W 007°45'1 0.7 2.0
2015-Jan-29 16:01N 70°08' W 007°44'1 0.7 2.0
2015-Jan-29 15:01N 70°09' W 007°42'1 0.7 2.0
2015-Jan-29 14:01N 70°09' W 007°41'1 0.7 1.9
2015-Jan-29 13:01N 70°10' W 007°39'1 0.7 2.1
2015-Jan-29 12:01N 70°10' W 007°37'1 0.7 2.3
2015-Jan-29 11:01N 70°11' W 007°35'1 0.7 2.6
2015-Jan-29 10:01N 70°11' W 007°34'1 0.7 2.9
2015-Jan-29 09:01N 70°11' W 007°32'1 0.7 3.1
2015-Jan-29 08:01N 70°11' W 007°30'1 0.9 1.5
2015-Jan-29 07:01N 70°11' W 007°27'1 1.0 1.5
2015-Jan-29 06:01N 70°11' W 007°24'1 1.2 1.8
2015-Jan-29 05:01N 70°11' W 007°21'1 1.2 2.0
2015-Jan-29 04:01N 70°12' W 007°17'1 1.1 2.0
2015-Jan-29 03:01N 70°12' W 007°14'1 1.2 2.1
2015-Jan-29 02:01N 70°12' W 007°11'1 1.2 3.9
2015-Jan-29 01:01N 70°12' W 007°07'1 1.2 4.1
2015-Jan-29 00:01N 70°13' W 007°04'1 1.1 4.4
2015-Jan-28 23:01N 70°13' W 007°01'1 1.1 4.6
2015-Jan-28 22:01N 70°14' W 006°58'1 0.9 4.7
2015-Jan-28 21:01N 70°14' W 006°56'1 0.9 4.7
2015-Jan-28 20:01N 70°14' W 006°53'1 1.0 3.1
2015-Jan-28 19:01N 70°15' W 006°50'1 1.2 2.8
2015-Jan-28 18:01N 70°15' W 006°47'1 1.2 2.8
2015-Jan-28 17:01N 70°15' W 006°44'1 1.3 2.9
2015-Jan-28 16:01N 70°16' W 006°40'1 1.4 2.9
2015-Jan-28 15:01N 70°17' W 006°36'1 1.4 2.8
2015-Jan-28 14:01N 70°17' W 006°33'2 1.6 3.0
2015-Jan-28 13:01N 70°18' W 006°29'2 1.5 2.8
2015-Jan-28 12:01N 70°19' W 006°25'2 1.5 2.5
2015-Jan-28 11:01N 70°19' W 006°21'2 1.6 2.6
2015-Jan-28 10:01N 70°20' W 006°16'2 1.5 2.7
2015-Jan-28 09:01N 70°20' W 006°12'2 1.5 2.8
2015-Jan-28 08:01N 70°21' W 006°08'1 1.4 2.7
2015-Jan-28 07:01N 70°21' W 006°04'1 1.2 2.9
2015-Jan-28 06:01N 70°21' W 006°00'1 1.0 3.0
2015-Jan-28 05:01N 70°21' W 005°57'1 0.9 3.1
2015-Jan-28 04:01N 70°21' W 005°54'1 0.7 3.1
2015-Jan-28 03:01N 70°21' W 005°52'1 0.6 3.2
2015-Jan-28 02:01N 70°21' W 005°50'1 0.5 3.2
2015-Jan-28 01:01N 70°21' W 005°49'0 0.4 3.3
2015-Jan-28 00:01N 70°21' W 005°48'0 0.4 3.3
2015-Jan-27 23:01N 70°21' W 005°47'0 0.5 3.3
2015-Jan-27 22:01N 70°20' W 005°46'0 0.4 3.3
2015-Jan-27 21:01N 70°20' W 005°45'0 0.5 3.3
2015-Jan-27 20:01N 70°20' W 005°44'1 0.6 3.3
2015-Jan-27 19:01N 70°19' W 005°43'1 0.7 3.3
2015-Jan-27 18:01N 70°19' W 005°42'1 0.7 3.4
2015-Jan-27 17:01N 70°18' W 005°41'1 0.6 3.4
2015-Jan-27 16:01N 70°18' W 005°39'0 0.5 3.4
2015-Jan-27 15:01N 70°17' W 005°38'0 0.4 3.4
2015-Jan-27 14:01N 70°17' W 005°37'0 0.3 3.4
2015-Jan-27 13:01N 70°17' W 005°37'0 0.3 3.4
2015-Jan-27 12:01N 70°16' W 005°36'0 0.1 3.4
2015-Jan-27 11:01N 70°16' W 005°36'0 0.1 3.4
2015-Jan-27 10:01N 70°16' W 005°37'0 0.4 3.5
2015-Jan-27 09:01N 70°16' W 005°38'0 0.4 3.4
2015-Jan-27 08:01N 70°16' W 005°39'0 0.5 3.5
2015-Jan-27 07:01N 70°15' W 005°39'1 0.5 3.4
2015-Jan-27 06:01N 70°15' W 005°40'0 0.5 3.3
2015-Jan-27 05:01N 70°14' W 005°40'0 0.3 3.0
2015-Jan-27 04:01N 70°14' W 005°40'0 0.3 2.8
2015-Jan-27 03:01N 70°14' W 005°41'0 0.4 2.7
2015-Jan-27 02:01N 70°14' W 005°43'1 0.6 2.7
2015-Jan-27 01:01N 70°14' W 005°44'1 0.8 2.6
2015-Jan-27 00:01N 70°14' W 005°47'1 1.0 2.6
2015-Jan-26 23:01N 70°14' W 005°50'1 1.2 2.5
2015-Jan-26 22:01N 70°14' W 005°53'1 1.2 2.5
2015-Jan-26 21:01N 70°15' W 005°56'1 1.2 2.5
2015-Jan-26 20:01N 70°15' W 005°60'1 1.1 2.5
2015-Jan-26 19:01N 70°16' W 006°02'1 0.9 2.6
2015-Jan-26 18:01N 70°17' W 006°04'1 0.6 2.7
2015-Jan-26 17:01N 70°17' W 006°05'0 0.4 2.7
2015-Jan-26 16:01N 70°18' W 006°05'1 0.6 2.8
2015-Jan-26 15:01N 70°18' W 006°04'1 0.8 2.8
2015-Jan-26 14:01N 70°19' W 006°03'1 1.1 2.8
2015-Jan-26 13:01N 70°20' W 006°01'1 1.3 2.8
2015-Jan-26 12:01N 70°21' W 006°00'1 1.2 2.9
2015-Jan-26 11:01N 70°22' W 005°60'1 1.1 2.9
2015-Jan-26 10:01N 70°23' W 005°60'1 0.9 2.9
2015-Jan-26 09:01N 70°24' W 005°60'1 0.5 2.9
2015-Jan-26 08:01N 70°25' W 005°60'0 0.1 2.9
2015-Jan-26 07:01N 70°25' W 005°60'0 0.2 3.0
2015-Jan-26 06:01N 70°25' W 005°59'1 0.6 2.9
2015-Jan-26 05:01N 70°24' W 005°58'1 0.7 2.8
2015-Jan-26 04:01N 70°24' W 005°56'1 0.6 2.9
2015-Jan-26 03:01N 70°24' W 005°54'1 0.6 2.8
2015-Jan-26 02:01N 70°23' W 005°53'1 0.6 2.8
2015-Jan-26 01:01N 70°23' W 005°51'1 0.5 2.9
2015-Jan-26 00:01N 70°23' W 005°50'0 0.4 2.9
2015-Jan-25 23:01N 70°23' W 005°48'0 0.2 2.9
2015-Jan-25 22:01N 70°23' W 005°48'0 0.1 2.9
2015-Jan-25 21:01N 70°23' W 005°48'0 0.1 2.9
2015-Jan-25 20:01N 70°23' W 005°48'0 0.2 2.8
2015-Jan-25 19:01N 70°23' W 005°49'0 0.3 2.7
2015-Jan-25 18:01N 70°23' W 005°49'1 0.6 2.8
2015-Jan-25 17:01N 70°23' W 005°48'1 1.0 2.7
2015-Jan-25 16:01N 70°22' W 005°46'1 1.3 2.6
2015-Jan-25 15:01N 70°21' W 005°43'1 1.3 2.6
2015-Jan-25 14:01N 70°20' W 005°40'1 1.1 2.8
2015-Jan-25 13:01N 70°19' W 005°39'1 0.9 2.9
2015-Jan-25 12:01N 70°18' W 005°37'1 0.7 2.9
2015-Jan-25 11:01N 70°18' W 005°36'0 0.5 2.9
2015-Jan-25 10:01N 70°17' W 005°35'0 0.4 2.9
2015-Jan-25 09:01N 70°17' W 005°35'0 0.2 2.9
2015-Jan-25 08:01N 70°17' W 005°35'0 0.2 2.9
2015-Jan-25 07:01N 70°17' W 005°36'0 0.2 2.9
2015-Jan-25 06:01N 70°16' W 005°36'0 0.2 3.0
2015-Jan-25 04:01N 70°16' W 005°37'0 0.2 3.0
2015-Jan-25 03:01N 70°16' W 005°38'0 0.2 2.9
2015-Jan-25 02:01N 70°16' W 005°38'0 0.3 2.9
2015-Jan-25 01:01N 70°16' W 005°39'0 0.3 3.0
2015-Jan-25 00:01N 70°16' W 005°40'1 0.5 2.9
2015-Jan-24 23:01N 70°17' W 005°41'1 0.6 2.9
2015-Jan-24 22:01N 70°17' W 005°43'1 0.7 2.9
2015-Jan-24 21:01N 70°17' W 005°45'1 0.7 2.9
2015-Jan-24 20:01N 70°18' W 005°46'1 0.8 3.0
2015-Jan-24 19:01N 70°18' W 005°48'1 0.9 3.0
2015-Jan-24 18:01N 70°19' W 005°51'1 0.9 3.0
2015-Jan-24 17:01N 70°19' W 005°53'1 0.8 3.1
2015-Jan-24 16:01N 70°20' W 005°55'1 0.7 3.0
2015-Jan-24 15:01N 70°20' W 005°56'1 0.5 3.0
2015-Jan-24 14:01N 70°21' W 005°56'0 0.4 3.0
2015-Jan-24 13:01N 70°21' W 005°56'0 0.3 3.0
2015-Jan-24 12:01N 70°21' W 005°56'0 0.4 3.0
2015-Jan-24 11:01N 70°22' W 005°56'0 0.5 2.9
2015-Jan-24 10:01N 70°22' W 005°56'0 0.5 3.0
2015-Jan-24 09:01N 70°23' W 005°56'0 0.5 3.0
2015-Jan-24 08:01N 70°23' W 005°56'0 0.4 3.0
2015-Jan-24 07:01N 70°24' W 005°56'0 0.4 3.2
2015-Jan-24 06:01N 70°24' W 005°56'0 0.3 3.1
2015-Jan-24 05:01N 70°24' W 005°56'0 0.3 3.1
2015-Jan-24 04:01N 70°24' W 005°56'0 0.2 3.1
2015-Jan-24 03:01N 70°25' W 005°55'0 0.3 3.1
2015-Jan-24 02:01N 70°25' W 005°55'0 0.3 3.1
2015-Jan-24 01:01N 70°25' W 005°54'0 0.3 3.1
2015-Jan-24 00:01N 70°25' W 005°53'0 0.4 3.2
2015-Jan-23 23:01N 70°25' W 005°52'0 0.5 3.2
2015-Jan-23 22:01N 70°26' W 005°51'0 0.5 3.1
2015-Jan-23 21:01N 70°26' W 005°50'1 0.5 3.2
2015-Jan-23 20:01N 70°26' W 005°49'1 0.6 3.2
2015-Jan-23 19:01N 70°27' W 005°48'1 0.6 3.2
2015-Jan-23 18:01N 70°27' W 005°47'1 0.6 3.1
2015-Jan-23 17:01N 70°28' W 005°45'1 0.7 3.2
2015-Jan-23 16:01N 70°28' W 005°44'1 0.6 3.3
2015-Jan-23 15:01N 70°28' W 005°42'1 0.8 3.3
2015-Jan-23 14:01N 70°28' W 005°39'1 1.0 3.3
2015-Jan-23 13:01N 70°28' W 005°36'1 1.2 3.2
2015-Jan-23 12:01N 70°28' W 005°33'1 1.3 3.1
2015-Jan-23 11:01N 70°29' W 005°29'1 1.2 3.1
2015-Jan-23 10:01N 70°29' W 005°26'1 1.1 2.8
2015-Jan-23 09:01N 70°29' W 005°22'1 0.9 3.0
2015-Jan-23 08:01N 70°29' W 005°20'1 0.8 2.9
2015-Jan-23 07:01N 70°29' W 005°17'1 0.7 2.9
2015-Jan-23 06:01N 70°29' W 005°15'1 0.9 2.9
2015-Jan-23 05:01N 70°28' W 005°14'1 0.9 2.8
2015-Jan-23 04:01N 70°27' W 005°13'1 1.1 2.7
2015-Jan-23 03:01N 70°26' W 005°13'1 1.0 3.0
2015-Jan-23 02:01N 70°25' W 005°13'1 1.0 3.1
2015-Jan-23 01:01N 70°24' W 005°14'1 0.8 3.2
2015-Jan-23 00:01N 70°24' W 005°15'1 0.8 3.2
2015-Jan-22 23:01N 70°23' W 005°15'1 1.0 2.8
2015-Jan-22 22:01N 70°22' W 005°15'1 0.9 3.0
2015-Jan-22 21:01N 70°21' W 005°15'1 0.7 3.1
2015-Jan-22 20:01N 70°20' W 005°16'1 0.6 3.2
2015-Jan-22 19:01N 70°20' W 005°16'0 0.5 3.2
2015-Jan-22 18:01N 70°19' W 005°17'   3.2
Track history (hours):
 
Tides and Currents Weather Stations Pressure Air Temp Water Temp Dewpoint Dewpoint Depression Visibility Wind Speed Wind Dir Waves Ship Positions

Drifting buoy 44845

Last reported at 2015-Feb-01 18:01 UTC. Time now 2015-Feb-01 19:41 UTC.
Position N 69°41' W 007°41'.

Water temperature 3.8 ° C

Date/timePositionNaut miles runAvg speedWind from/ knotsBaromVisibWave heightAir tempDewpointWater temp
2015-Feb-01 18:01N 69°41' W 007°41'2 0.9 3.8
2015-Feb-01 16:01N 69°41' W 007°46'1 0.5 3.6
2015-Feb-01 15:01N 69°41' W 007°48'0 0.5 3.5
2015-Feb-01 14:01N 69°41' W 007°49'0 0.5 3.4
2015-Feb-01 13:01N 69°41' W 007°50'0 0.3 3.0
2015-Feb-01 12:01N 69°42' W 007°51'1 0.5 2.3
2015-Feb-01 10:01N 69°43' W 007°51'1 0.7 1.9
2015-Feb-01 09:01N 69°43' W 007°51'1 0.9 2.2
2015-Feb-01 08:01N 69°44' W 007°52'1 0.9 1.9
2015-Feb-01 07:01N 69°45' W 007°53'1 0.7 2.0
2015-Feb-01 06:01N 69°45' W 007°55'1 0.9 1.8
2015-Feb-01 05:01N 69°46' W 007°57'1 0.6 1.8
2015-Feb-01 04:01N 69°46' W 007°59'0 0.4 1.8
2015-Feb-01 03:01N 69°46' W 007°60'0 0.3 1.8
2015-Feb-01 02:01N 69°46' W 008°01'0 0.1 1.8
2015-Feb-01 01:01N 69°46' W 008°01'0 0.1 1.7
2015-Feb-01 00:01N 69°46' W 008°01'0 0.2 1.8
2015-Jan-31 23:01N 69°46' W 008°00'0 0.4 1.7
2015-Jan-31 22:01N 69°47' W 007°60'1 0.5 1.7
2015-Jan-31 21:01N 69°47' W 007°60'1 0.5 1.8
2015-Jan-31 20:01N 69°48' W 007°60'1 0.5 1.8
2015-Jan-31 19:01N 69°48' W 008°00'1 0.6 1.8
2015-Jan-31 18:01N 69°49' W 008°01'1 0.6 1.8
2015-Jan-31 17:01N 69°49' W 008°02'0 0.5 1.8
2015-Jan-31 16:01N 69°50' W 008°03'0 0.4 1.8
2015-Jan-31 15:01N 69°50' W 008°04'0 0.3 1.9
2015-Jan-31 14:01N 69°50' W 008°04'0 0.1 1.9
2015-Jan-31 13:01N 69°50' W 008°04'0 0.1 1.9
2015-Jan-31 12:01N 69°50' W 008°04'0 0.3 1.9
2015-Jan-31 11:01N 69°51' W 008°04'0 0.4 1.9
2015-Jan-31 10:01N 69°51' W 008°03'1 0.5 1.8
2015-Jan-31 09:01N 69°51' W 008°02'1 0.7 1.8
2015-Jan-31 08:01N 69°52' W 008°02'1 0.8 1.8
2015-Jan-31 07:01N 69°53' W 008°01'1 0.8 1.7
2015-Jan-31 06:01N 69°53' W 008°01'1 0.7 1.7
2015-Jan-31 05:01N 69°54' W 008°02'0 0.5 1.7
2015-Jan-31 04:01N 69°55' W 008°02'0 0.3 1.7
2015-Jan-31 03:01N 69°55' W 008°03'0 0.3 1.7
2015-Jan-31 02:01N 69°55' W 008°03'0 0.3 1.7
2015-Jan-31 01:01N 69°55' W 008°03'0 0.2 1.7
2015-Jan-31 00:01N 69°55' W 008°04'0 0.1 1.6
2015-Jan-30 23:01N 69°55' W 008°04'0 0.1 1.6
2015-Jan-30 22:01N 69°56' W 008°04'0 0.2 1.7
2015-Jan-30 21:01N 69°56' W 008°04'0 0.3 1.7
2015-Jan-30 20:01N 69°56' W 008°03'0 0.4 1.7
2015-Jan-30 19:01N 69°56' W 008°03'1 0.6 1.6
2015-Jan-30 18:01N 69°57' W 008°03'1 0.7 1.6
2015-Jan-30 17:01N 69°58' W 008°04'1 1.4 1.6
2015-Jan-30 16:01N 69°59' W 008°05'0 0.0 1.6
2015-Jan-30 15:01N 69°59' W 008°05'1 0.6 1.6
2015-Jan-30 14:01N 69°60' W 008°05'0 0.4 1.7
2015-Jan-30 13:01N 70°00' W 008°06'0 0.2 1.7
2015-Jan-30 12:01N 70°00' W 008°06'0 0.2 1.7
2015-Jan-30 11:01N 70°00' W 008°05'0 0.3 1.6
2015-Jan-30 10:01N 70°01' W 008°05'0 0.5 1.6
2015-Jan-30 09:01N 70°01' W 008°03'1 0.5 1.6
2015-Jan-30 08:01N 70°01' W 008°02'1 0.6 1.6
2015-Jan-30 07:01N 70°02' W 008°01'1 0.6 1.7
2015-Jan-30 06:01N 70°02' W 007°60'1 0.6 1.9
2015-Jan-30 05:01N 70°02' W 007°58'1 0.7 2.1
2015-Jan-30 04:01N 70°03' W 007°57'1 0.6 2.1
2015-Jan-30 03:01N 70°03' W 007°56'1 0.7 2.0
2015-Jan-30 02:01N 70°04' W 007°55'1 0.7 2.0
2015-Jan-30 01:01N 70°05' W 007°54'0 0.5 2.0
2015-Jan-30 00:01N 70°05' W 007°54'0 0.5 2.0
2015-Jan-29 23:01N 70°05' W 007°53'0 0.5 2.0
2015-Jan-29 22:01N 70°06' W 007°52'0 0.4 2.1
2015-Jan-29 21:01N 70°06' W 007°51'1 0.6 2.1
2015-Jan-29 20:01N 70°07' W 007°50'1 0.6 2.1
2015-Jan-29 19:01N 70°07' W 007°49'1 0.8 2.0
2015-Jan-29 18:01N 70°07' W 007°47'1 0.8 2.0
2015-Jan-29 17:01N 70°08' W 007°45'1 0.7 2.0
2015-Jan-29 16:01N 70°08' W 007°44'1 0.7 2.0
2015-Jan-29 15:01N 70°09' W 007°42'1 0.7 2.0
2015-Jan-29 14:01N 70°09' W 007°41'1 0.7 1.9
2015-Jan-29 13:01N 70°10' W 007°39'1 0.7 2.1
2015-Jan-29 12:01N 70°10' W 007°37'1 0.7 2.3
2015-Jan-29 11:01N 70°11' W 007°35'1 0.7 2.6
2015-Jan-29 10:01N 70°11' W 007°34'1 0.7 2.9
2015-Jan-29 09:01N 70°11' W 007°32'1 0.7 3.1
2015-Jan-29 08:01N 70°11' W 007°30'1 0.9 1.5
2015-Jan-29 07:01N 70°11' W 007°27'1 1.0 1.5
2015-Jan-29 06:01N 70°11' W 007°24'1 1.2 1.8
2015-Jan-29 05:01N 70°11' W 007°21'1 1.2 2.0
2015-Jan-29 04:01N 70°12' W 007°17'1 1.1 2.0
2015-Jan-29 03:01N 70°12' W 007°14'1 1.2 2.1
2015-Jan-29 02:01N 70°12' W 007°11'1 1.2 3.9
2015-Jan-29 01:01N 70°12' W 007°07'1 1.2 4.1
2015-Jan-29 00:01N 70°13' W 007°04'1 1.1 4.4
2015-Jan-28 23:01N 70°13' W 007°01'1 1.1 4.6
2015-Jan-28 22:01N 70°14' W 006°58'1 0.9 4.7
2015-Jan-28 21:01N 70°14' W 006°56'1 0.9 4.7
2015-Jan-28 20:01N 70°14' W 006°53'1 1.0 3.1
2015-Jan-28 19:01N 70°15' W 006°50'1 1.2 2.8
2015-Jan-28 18:01N 70°15' W 006°47'1 1.2 2.8
2015-Jan-28 17:01N 70°15' W 006°44'1 1.3 2.9
2015-Jan-28 16:01N 70°16' W 006°40'1 1.4 2.9
2015-Jan-28 15:01N 70°17' W 006°36'1 1.4 2.8
2015-Jan-28 14:01N 70°17' W 006°33'2 1.6 3.0
2015-Jan-28 13:01N 70°18' W 006°29'2 1.5 2.8
2015-Jan-28 12:01N 70°19' W 006°25'2 1.5 2.5
2015-Jan-28 11:01N 70°19' W 006°21'2 1.6 2.6
2015-Jan-28 10:01N 70°20' W 006°16'2 1.5 2.7
2015-Jan-28 09:01N 70°20' W 006°12'2 1.5 2.8
2015-Jan-28 08:01N 70°21' W 006°08'1 1.4 2.7
2015-Jan-28 07:01N 70°21' W 006°04'1 1.2 2.9
2015-Jan-28 06:01N 70°21' W 006°00'1 1.0 3.0
2015-Jan-28 05:01N 70°21' W 005°57'1 0.9 3.1
2015-Jan-28 04:01N 70°21' W 005°54'1 0.7 3.1
2015-Jan-28 03:01N 70°21' W 005°52'1 0.6 3.2
2015-Jan-28 02:01N 70°21' W 005°50'1 0.5 3.2
2015-Jan-28 01:01N 70°21' W 005°49'0 0.4 3.3
2015-Jan-28 00:01N 70°21' W 005°48'0 0.4 3.3
2015-Jan-27 23:01N 70°21' W 005°47'0 0.5 3.3
2015-Jan-27 22:01N 70°20' W 005°46'0 0.4 3.3
2015-Jan-27 21:01N 70°20' W 005°45'0 0.5 3.3
2015-Jan-27 20:01N 70°20' W 005°44'1 0.6 3.3
2015-Jan-27 19:01N 70°19' W 005°43'1 0.7 3.3
2015-Jan-27 18:01N 70°19' W 005°42'1 0.7 3.4
2015-Jan-27 17:01N 70°18' W 005°41'1 0.6 3.4
2015-Jan-27 16:01N 70°18' W 005°39'0 0.5 3.4
2015-Jan-27 15:01N 70°17' W 005°38'0 0.4 3.4
2015-Jan-27 14:01N 70°17' W 005°37'0 0.3 3.4
2015-Jan-27 13:01N 70°17' W 005°37'0 0.3 3.4
2015-Jan-27 12:01N 70°16' W 005°36'0 0.1 3.4
2015-Jan-27 11:01N 70°16' W 005°36'0 0.1 3.4
2015-Jan-27 10:01N 70°16' W 005°37'0 0.4 3.5
2015-Jan-27 09:01N 70°16' W 005°38'0 0.4 3.4
2015-Jan-27 08:01N 70°16' W 005°39'0 0.5 3.5
2015-Jan-27 07:01N 70°15' W 005°39'1 0.5 3.4
2015-Jan-27 06:01N 70°15' W 005°40'0 0.5 3.3
2015-Jan-27 05:01N 70°14' W 005°40'0 0.3 3.0
2015-Jan-27 04:01N 70°14' W 005°40'0 0.3 2.8
2015-Jan-27 03:01N 70°14' W 005°41'0 0.4 2.7
2015-Jan-27 02:01N 70°14' W 005°43'1 0.6 2.7
2015-Jan-27 01:01N 70°14' W 005°44'1 0.8 2.6
2015-Jan-27 00:01N 70°14' W 005°47'1 1.0 2.6
2015-Jan-26 23:01N 70°14' W 005°50'1 1.2 2.5
2015-Jan-26 22:01N 70°14' W 005°53'1 1.2 2.5
2015-Jan-26 21:01N 70°15' W 005°56'1 1.2 2.5
2015-Jan-26 20:01N 70°15' W 005°60'1 1.1 2.5
2015-Jan-26 19:01N 70°16' W 006°02'1 0.9 2.6
2015-Jan-26 18:01N 70°17' W 006°04'1 0.6 2.7
2015-Jan-26 17:01N 70°17' W 006°05'0 0.4 2.7
2015-Jan-26 16:01N 70°18' W 006°05'1 0.6 2.8
2015-Jan-26 15:01N 70°18' W 006°04'1 0.8 2.8
2015-Jan-26 14:01N 70°19' W 006°03'1 1.1 2.8
2015-Jan-26 13:01N 70°20' W 006°01'1 1.3 2.8
2015-Jan-26 12:01N 70°21' W 006°00'1 1.2 2.9
2015-Jan-26 11:01N 70°22' W 005°60'1 1.1 2.9
2015-Jan-26 10:01N 70°23' W 005°60'1 0.9 2.9
2015-Jan-26 09:01N 70°24' W 005°60'1 0.5 2.9
2015-Jan-26 08:01N 70°25' W 005°60'0 0.1 2.9
2015-Jan-26 07:01N 70°25' W 005°60'0 0.2 3.0
2015-Jan-26 06:01N 70°25' W 005°59'1 0.6 2.9
2015-Jan-26 05:01N 70°24' W 005°58'1 0.7 2.8
2015-Jan-26 04:01N 70°24' W 005°56'1 0.6 2.9
2015-Jan-26 03:01N 70°24' W 005°54'1 0.6 2.8
2015-Jan-26 02:01N 70°23' W 005°53'1 0.6 2.8
2015-Jan-26 01:01N 70°23' W 005°51'1 0.5 2.9
2015-Jan-26 00:01N 70°23' W 005°50'0 0.4 2.9
2015-Jan-25 23:01N 70°23' W 005°48'0 0.2 2.9
2015-Jan-25 22:01N 70°23' W 005°48'0 0.1 2.9
2015-Jan-25 21:01N 70°23' W 005°48'0 0.1 2.9
2015-Jan-25 20:01N 70°23' W 005°48'0 0.2 2.8
2015-Jan-25 19:01N 70°23' W 005°49'0 0.3 2.7
2015-Jan-25 18:01N 70°23' W 005°49'1 0.6 2.8
2015-Jan-25 17:01N 70°23' W 005°48'1 1.0 2.7
2015-Jan-25 16:01N 70°22' W 005°46'1 1.3 2.6
2015-Jan-25 15:01N 70°21' W 005°43'1 1.3 2.6
2015-Jan-25 14:01N 70°20' W 005°40'1 1.1 2.8
2015-Jan-25 13:01N 70°19' W 005°39'1 0.9 2.9
2015-Jan-25 12:01N 70°18' W 005°37'1 0.7 2.9
2015-Jan-25 11:01N 70°18' W 005°36'0 0.5 2.9
2015-Jan-25 10:01N 70°17' W 005°35'0 0.4 2.9
2015-Jan-25 09:01N 70°17' W 005°35'0 0.2 2.9
2015-Jan-25 08:01N 70°17' W 005°35'0 0.2 2.9
2015-Jan-25 07:01N 70°17' W 005°36'0 0.2 2.9
2015-Jan-25 06:01N 70°16' W 005°36'0 0.2 3.0
2015-Jan-25 04:01N 70°16' W 005°37'0 0.2 3.0
2015-Jan-25 03:01N 70°16' W 005°38'0 0.2 2.9
2015-Jan-25 02:01N 70°16' W 005°38'0 0.3 2.9
2015-Jan-25 01:01N 70°16' W 005°39'0 0.3 3.0
2015-Jan-25 00:01N 70°16' W 005°40'1 0.5 2.9
2015-Jan-24 23:01N 70°17' W 005°41'1 0.6 2.9
2015-Jan-24 22:01N 70°17' W 005°43'1 0.7 2.9
2015-Jan-24 21:01N 70°17' W 005°45'1 0.7 2.9
2015-Jan-24 20:01N 70°18' W 005°46'1 0.8 3.0
2015-Jan-24 19:01N 70°18' W 005°48'1 0.9 3.0
2015-Jan-24 18:01N 70°19' W 005°51'1 0.9 3.0
2015-Jan-24 17:01N 70°19' W 005°53'1 0.8 3.1
2015-Jan-24 16:01N 70°20' W 005°55'1 0.7 3.0
2015-Jan-24 15:01N 70°20' W 005°56'1 0.5 3.0
2015-Jan-24 14:01N 70°21' W 005°56'0 0.4 3.0
2015-Jan-24 13:01N 70°21' W 005°56'0 0.3 3.0
2015-Jan-24 12:01N 70°21' W 005°56'0 0.4 3.0
2015-Jan-24 11:01N 70°22' W 005°56'0 0.5 2.9
2015-Jan-24 10:01N 70°22' W 005°56'0 0.5 3.0
2015-Jan-24 09:01N 70°23' W 005°56'0 0.5 3.0
2015-Jan-24 08:01N 70°23' W 005°56'0 0.4 3.0
2015-Jan-24 07:01N 70°24' W 005°56'0 0.4 3.2
2015-Jan-24 06:01N 70°24' W 005°56'0 0.3 3.1
2015-Jan-24 05:01N 70°24' W 005°56'0 0.3 3.1
2015-Jan-24 04:01N 70°24' W 005°56'0 0.2 3.1
2015-Jan-24 03:01N 70°25' W 005°55'0 0.3 3.1
2015-Jan-24 02:01N 70°25' W 005°55'0 0.3 3.1
2015-Jan-24 01:01N 70°25' W 005°54'0 0.3 3.1
2015-Jan-24 00:01N 70°25' W 005°53'0 0.4 3.2
2015-Jan-23 23:01N 70°25' W 005°52'0 0.5 3.2
2015-Jan-23 22:01N 70°26' W 005°51'0 0.5 3.1
2015-Jan-23 21:01N 70°26' W 005°50'1 0.5 3.2
2015-Jan-23 20:01N 70°26' W 005°49'1 0.6 3.2
2015-Jan-23 19:01N 70°27' W 005°48'1 0.6 3.2
2015-Jan-23 18:01N 70°27' W 005°47'1 0.6 3.1
2015-Jan-23 17:01N 70°28' W 005°45'1 0.7 3.2
2015-Jan-23 16:01N 70°28' W 005°44'1 0.6 3.3
2015-Jan-23 15:01N 70°28' W 005°42'1 0.8 3.3
2015-Jan-23 14:01N 70°28' W 005°39'1 1.0 3.3
2015-Jan-23 13:01N 70°28' W 005°36'1 1.2 3.2
2015-Jan-23 12:01N 70°28' W 005°33'1 1.3 3.1
2015-Jan-23 11:01N 70°29' W 005°29'1 1.2 3.1
2015-Jan-23 10:01N 70°29' W 005°26'1 1.1 2.8
2015-Jan-23 09:01N 70°29' W 005°22'1 0.9 3.0
2015-Jan-23 08:01N 70°29' W 005°20'1 0.8 2.9
2015-Jan-23 07:01N 70°29' W 005°17'1 0.7 2.9
2015-Jan-23 06:01N 70°29' W 005°15'1 0.9 2.9
2015-Jan-23 05:01N 70°28' W 005°14'1 0.9 2.8
2015-Jan-23 04:01N 70°27' W 005°13'1 1.1 2.7
2015-Jan-23 03:01N 70°26' W 005°13'1 1.0 3.0
2015-Jan-23 02:01N 70°25' W 005°13'1 1.0 3.1
2015-Jan-23 01:01N 70°24' W 005°14'1 0.8 3.2
2015-Jan-23 00:01N 70°24' W 005°15'1 0.8 3.2
2015-Jan-22 23:01N 70°23' W 005°15'1 1.0 2.8
2015-Jan-22 22:01N 70°22' W 005°15'1 0.9 3.0
2015-Jan-22 21:01N 70°21' W 005°15'1 0.7 3.1
2015-Jan-22 20:01N 70°20' W 005°16'1 0.6 3.2
2015-Jan-22 19:01N 70°20' W 005°16'0 0.5 3.2
2015-Jan-22 18:01N 70°19' W 005°17'   3.2

Dump ship's entire track history